Terminal Aerodrome Forecast
Issued by NWS

Home | Current Version | Previous Version | Text Only | Print | Product List | Glossary On
Versions: 1 2 3 4 5 6 7 8 9 10 11 12 13 14 15 16 17
000
FTUS41 KBOX 241732
TAFHYA
TAF
KHYA 241732Z 2418/2518 34013G19KT P6SM OVC015
     FM242200 33009KT P6SM OVC015
     FM250400 32007KT P6SM BKN030
     FM250600 32006KT P6SM BKN045
     FM251000 31006KT P6SM SCT100
     FM251600 27008KT P6SM FEW250=

USA.gov is the U.S. government's official web portal to all federal, state and local government web resources and services.